createdAt,value
2022-10-14T00:02:28.866Z,14.40
2022-10-14T00:05:31.998Z,14.30
2022-10-14T00:08:35.684Z,14.30
2022-10-14T00:11:39.301Z,14.20
2022-10-14T00:14:43.868Z,14.20
2022-10-14T00:17:46.970Z,14.20
2022-10-14T00:20:55.860Z,14.20
2022-10-14T00:23:59.527Z,14.20
2022-10-14T00:27:02.600Z,14.10
2022-10-14T00:30:08.179Z,14.10
2022-10-14T00:33:11.271Z,14.00
2022-10-14T00:36:16.026Z,14.00
2022-10-14T00:39:19.252Z,14.00
2022-10-14T00:42:22.635Z,14.00
2022-10-14T00:45:27.267Z,14.00
2022-10-14T00:48:30.411Z,14.00
2022-10-14T00:51:33.820Z,13.90
2022-10-14T00:54:39.804Z,13.90
2022-10-14T00:57:43.137Z,13.90
2022-10-14T01:00:47.641Z,13.80
2022-10-14T01:03:50.836Z,13.80
2022-10-14T01:07:06.725Z,13.80
2022-10-14T01:10:15.975Z,13.70
2022-10-14T01:13:27.835Z,13.70
2022-10-14T01:16:45.970Z,13.70
2022-10-14T01:20:06.550Z,13.70
2022-10-14T01:23:36.813Z,13.60
2022-10-14T01:26:59.298Z,13.60
2022-10-14T01:30:13.449Z,13.60
2022-10-14T01:33:21.496Z,13.50
2022-10-14T01:36:31.512Z,13.50
2022-10-14T01:39:40.739Z,13.40
2022-10-14T01:42:45.572Z,13.40
2022-10-14T01:45:51.543Z,13.40
2022-10-14T01:48:59.306Z,13.30
2022-10-14T01:52:07.026Z,13.30
2022-10-14T01:55:15.011Z,13.30
2022-10-14T01:58:21.097Z,13.20
2022-10-14T02:01:26.027Z,13.10
2022-10-14T02:04:29.220Z,13.00
2022-10-14T02:07:39.245Z,13.00
2022-10-14T02:11:02.605Z,13.00
2022-10-14T02:14:12.979Z,13.10
2022-10-14T02:17:22.319Z,13.00
2022-10-14T02:20:30.300Z,13.00
2022-10-14T02:23:39.121Z,13.00
2022-10-14T02:26:43.343Z,13.00
2022-10-14T02:29:48.396Z,13.00
2022-10-14T02:32:54.160Z,13.00
2022-10-14T02:35:58.083Z,12.90
2022-10-14T02:39:02.607Z,12.90
2022-10-14T02:42:06.472Z,12.80
2022-10-14T02:45:11.973Z,12.70
2022-10-14T02:48:16.491Z,12.70
2022-10-14T02:51:19.590Z,12.80
2022-10-14T02:54:22.723Z,12.80
2022-10-14T02:57:25.930Z,12.80
2022-10-14T03:00:29.049Z,12.70
2022-10-14T03:03:33.533Z,12.50
2022-10-14T03:06:36.610Z,12.40
2022-10-14T03:09:39.682Z,12.30
2022-10-14T03:12:42.768Z,12.40
2022-10-14T03:15:45.838Z,12.30
2022-10-14T03:18:50.332Z,12.30
2022-10-14T03:21:53.411Z,12.30
2022-10-14T03:24:56.515Z,12.20
2022-10-14T03:27:59.644Z,12.10
2022-10-14T03:31:02.744Z,12.00
2022-10-14T03:34:07.364Z,12.00
2022-10-14T03:37:10.525Z,11.90
2022-10-14T03:40:14.225Z,11.80
2022-10-14T03:43:17.324Z,11.80
2022-10-14T03:46:20.472Z,11.70
2022-10-14T03:49:25.037Z,11.70
2022-10-14T03:52:28.170Z,11.70
2022-10-14T03:55:31.570Z,11.80
2022-10-14T03:58:34.648Z,11.80
2022-10-14T04:01:37.883Z,11.80
2022-10-14T04:04:42.383Z,11.70
2022-10-14T04:07:45.464Z,11.70
2022-10-14T04:10:53.885Z,11.60
2022-10-14T04:13:59.424Z,11.60
2022-10-14T04:17:02.503Z,11.50
2022-10-14T04:20:07.953Z,11.50
2022-10-14T04:23:11.326Z,11.50
2022-10-14T04:26:14.486Z,11.50
2022-10-14T04:29:17.567Z,11.50
2022-10-14T04:32:21.035Z,11.40
2022-10-14T04:35:25.758Z,11.40
2022-10-14T04:38:29.543Z,11.50
2022-10-14T04:41:32.706Z,11.50
2022-10-14T04:44:35.872Z,11.40
2022-10-14T04:47:38.995Z,11.40
2022-10-14T04:50:43.573Z,11.30
2022-10-14T04:53:46.676Z,11.30
2022-10-14T04:56:49.770Z,11.30
2022-10-14T04:59:52.862Z,11.20
2022-10-14T05:02:56.005Z,11.20
2022-10-14T05:06:00.720Z,11.30
2022-10-14T05:09:03.900Z,11.30
2022-10-14T05:12:07.471Z,11.30
2022-10-14T05:15:11.081Z,11.40
2022-10-14T05:18:14.375Z,11.40
2022-10-14T05:21:18.853Z,11.40
2022-10-14T05:24:21.956Z,11.40
2022-10-14T05:27:25.084Z,11.40
2022-10-14T05:30:33.643Z,11.50
2022-10-14T05:33:37.781Z,11.50
2022-10-14T05:36:42.268Z,11.50
2022-10-14T05:39:45.412Z,11.60
2022-10-14T05:42:48.590Z,11.60
2022-10-14T05:45:51.795Z,11.60
2022-10-14T05:48:54.891Z,11.50
2022-10-14T05:51:59.349Z,11.60
2022-10-14T05:55:02.657Z,11.60
2022-10-14T05:58:05.843Z,11.70
2022-10-14T06:01:11.653Z,11.80
2022-10-14T06:04:19.012Z,11.90
2022-10-14T06:07:23.469Z,12.00
2022-10-14T06:10:27.409Z,12.10
2022-10-14T06:13:30.578Z,12.10
2022-10-14T06:16:33.774Z,12.20
2022-10-14T06:19:37.342Z,12.30
2022-10-14T06:22:41.850Z,12.40
2022-10-14T06:25:44.962Z,12.50
2022-10-14T06:28:48.256Z,12.60
2022-10-14T06:31:51.494Z,12.70
2022-10-14T06:34:54.605Z,12.80
2022-10-14T06:37:59.430Z,13.00
2022-10-14T06:41:02.577Z,13.00
2022-10-14T06:44:05.757Z,13.10
2022-10-14T06:47:09.308Z,13.20
2022-10-14T06:50:12.425Z,13.40
2022-10-14T06:53:17.047Z,13.50
2022-10-14T06:56:20.187Z,13.60
2022-10-14T06:59:23.447Z,13.60
2022-10-14T07:02:26.753Z,13.60
2022-10-14T07:05:29.855Z,13.80
2022-10-14T07:08:34.370Z,13.90
2022-10-14T07:11:37.514Z,14.00
2022-10-14T07:14:40.618Z,14.10
2022-10-14T07:17:43.710Z,14.20
2022-10-14T07:20:47.024Z,14.30
2022-10-14T07:23:51.591Z,14.30
2022-10-14T07:26:55.193Z,14.30
2022-10-14T07:29:58.398Z,14.50
2022-10-14T07:33:01.699Z,14.60
2022-10-14T07:36:06.601Z,14.80
2022-10-14T07:39:11.156Z,14.90
2022-10-14T07:42:14.269Z,15.00
2022-10-14T07:45:18.693Z,15.10
2022-10-14T07:48:27.467Z,15.10
2022-10-14T07:51:42.482Z,15.10
2022-10-14T07:54:47.561Z,15.30
2022-10-14T07:57:50.647Z,15.50
2022-10-14T08:00:54.231Z,15.80
2022-10-14T08:03:57.598Z,16.10
2022-10-14T08:07:01.366Z,16.40
2022-10-14T08:10:06.676Z,16.70
2022-10-14T08:13:09.974Z,18.90
2022-10-14T08:16:16.411Z,21.40
2022-10-14T08:19:19.565Z,23.90
2022-10-14T08:22:22.970Z,25.80
2022-10-14T08:25:28.077Z,26.90
2022-10-14T08:28:31.304Z,28.10
2022-10-14T08:31:35.044Z,29.00
2022-10-14T08:34:38.152Z,29.70
2022-10-14T08:37:41.536Z,31.10
2022-10-14T08:41:03.648Z,32.40
2022-10-14T08:44:17.783Z,33.60
2022-10-14T08:47:26.792Z,34.10
2022-10-14T08:50:38.399Z,34.00
2022-10-14T08:53:46.209Z,34.00
2022-10-14T08:56:51.126Z,34.90
2022-10-14T08:59:54.848Z,35.40
2022-10-14T09:02:59.698Z,36.30
2022-10-14T09:06:06.270Z,37.30
2022-10-14T09:09:16.168Z,37.10
2022-10-14T09:12:24.045Z,35.90
2022-10-14T09:15:33.674Z,36.30
2022-10-14T09:18:41.688Z,36.30
2022-10-14T09:21:52.745Z,37.60
2022-10-14T09:24:56.589Z,38.00
2022-10-14T09:28:01.100Z,39.00
2022-10-14T09:31:05.017Z,39.60
2022-10-14T09:34:10.238Z,40.30
2022-10-14T09:37:29.227Z,39.70
2022-10-14T09:40:35.203Z,40.00
2022-10-14T09:43:39.875Z,40.50
2022-10-14T09:46:43.543Z,40.80
2022-10-14T09:49:49.448Z,39.70
2022-10-14T09:53:01.513Z,40.40
2022-10-14T09:56:07.885Z,40.70
2022-10-14T09:59:19.187Z,40.90
2022-10-14T10:02:25.722Z,41.00
2022-10-14T10:05:30.534Z,41.10
2022-10-14T10:08:34.579Z,41.50
2022-10-14T10:11:39.199Z,41.70
2022-10-14T10:14:56.443Z,42.30
2022-10-14T10:17:59.600Z,41.30
2022-10-14T10:21:07.003Z,40.60
2022-10-14T10:24:24.894Z,41.60
2022-10-14T10:27:35.617Z,42.40
2022-10-14T10:30:44.570Z,42.60
2022-10-14T10:33:55.203Z,42.50
2022-10-14T10:37:05.574Z,42.30
2022-10-14T10:40:25.840Z,42.00
2022-10-14T10:43:53.651Z,41.10
2022-10-14T10:47:16.189Z,41.30
2022-10-14T10:50:30.029Z,42.30
2022-10-14T10:53:57.242Z,42.80
2022-10-14T10:57:05.162Z,43.10
2022-10-14T11:00:13.537Z,41.60
2022-10-14T11:03:31.261Z,40.40
2022-10-14T11:06:57.739Z,37.30
2022-10-14T11:10:25.632Z,35.20
2022-10-14T11:13:38.445Z,33.20
2022-10-14T11:16:50.186Z,31.00
2022-10-14T11:20:05.443Z,28.90
2022-10-14T11:23:28.549Z,27.70
2022-10-14T11:27:03.035Z,27.00
2022-10-14T11:30:18.438Z,26.10
2022-10-14T11:33:39.858Z,26.00
2022-10-14T11:36:56.114Z,25.90
2022-10-14T11:40:02.063Z,26.30
2022-10-14T11:43:20.180Z,29.60
2022-10-14T11:46:26.938Z,32.10
2022-10-14T11:49:34.270Z,33.20
2022-10-14T11:52:44.489Z,32.60
2022-10-14T11:55:53.630Z,32.60
2022-10-14T11:59:00.314Z,32.90
2022-10-14T12:02:13.135Z,35.40
2022-10-14T12:05:22.512Z,36.90
2022-10-14T12:08:35.667Z,37.70
2022-10-14T12:11:45.248Z,38.00
2022-10-14T12:14:52.682Z,40.00
2022-10-14T12:17:58.655Z,41.30
2022-10-14T12:21:19.333Z,40.90
2022-10-14T12:24:27.678Z,39.20
2022-10-14T12:27:32.122Z,37.80
2022-10-14T12:30:38.201Z,38.10
2022-10-14T12:34:17.534Z,38.30
2022-10-14T12:37:50.638Z,38.80
2022-10-14T12:40:55.265Z,36.50
2022-10-14T12:44:04.209Z,35.60
2022-10-14T12:47:16.432Z,34.90
2022-10-14T12:50:30.472Z,36.10
2022-10-14T12:53:35.801Z,37.00
2022-10-14T12:56:44.663Z,34.10
2022-10-14T12:59:52.943Z,33.20
2022-10-14T13:03:00.082Z,33.10
2022-10-14T13:06:35.573Z,31.70
2022-10-14T13:09:38.910Z,31.10
2022-10-14T13:12:45.017Z,29.70
2022-10-14T13:15:52.513Z,29.00
2022-10-14T13:18:58.015Z,30.80
2022-10-14T13:22:01.634Z,31.40
2022-10-14T13:25:12.242Z,31.70
2022-10-14T13:28:26.735Z,32.70
2022-10-14T13:31:37.962Z,32.90
2022-10-14T13:34:50.811Z,32.40
2022-10-14T13:37:59.948Z,31.30
2022-10-14T13:41:04.776Z,29.90
2022-10-14T13:44:13.352Z,28.70
2022-10-14T13:47:21.396Z,27.80
2022-10-14T13:50:28.976Z,27.10
2022-10-14T13:53:32.112Z,26.20
2022-10-14T13:56:35.341Z,24.80
2022-10-14T13:59:46.863Z,24.10
2022-10-14T14:03:17.135Z,23.80
2022-10-14T14:06:22.730Z,23.20
2022-10-14T14:09:28.439Z,22.30
2022-10-14T14:12:31.800Z,21.80
2022-10-14T14:15:37.769Z,21.50
2022-10-14T14:19:03.843Z,21.30
2022-10-14T14:22:18.852Z,21.10
2022-10-14T14:25:34.926Z,21.00
2022-10-14T14:28:39.000Z,21.00
2022-10-14T14:32:05.671Z,21.20
2022-10-14T14:35:16.066Z,21.20
2022-10-14T14:38:29.763Z,21.00
2022-10-14T14:41:34.375Z,20.90
2022-10-14T14:44:37.870Z,20.90
2022-10-14T14:47:42.831Z,20.80
2022-10-14T14:50:46.773Z,20.50
2022-10-14T14:53:53.882Z,20.40
2022-10-14T14:57:03.424Z,20.50
2022-10-14T15:00:08.536Z,20.50
2022-10-14T15:03:13.282Z,20.50
2022-10-14T15:06:18.021Z,20.30
2022-10-14T15:09:27.788Z,20.10
2022-10-14T15:12:34.227Z,20.10
2022-10-14T15:15:38.234Z,20.00
2022-10-14T15:18:43.651Z,19.90
2022-10-14T15:21:47.932Z,19.90
2022-10-14T15:25:06.666Z,19.90
2022-10-14T15:28:30.638Z,19.70
2022-10-14T15:31:34.389Z,19.50
2022-10-14T15:34:38.931Z,19.40
2022-10-14T15:37:42.450Z,19.20
2022-10-14T15:40:46.205Z,19.10
2022-10-14T15:43:49.370Z,18.90
2022-10-14T15:47:09.750Z,18.90
2022-10-14T15:50:18.688Z,18.80
2022-10-14T15:53:21.782Z,18.70
2022-10-14T15:56:25.206Z,18.70
2022-10-14T15:59:28.708Z,18.70
2022-10-14T16:02:35.200Z,18.70
2022-10-14T16:05:40.013Z,18.70
2022-10-14T16:08:43.289Z,18.70
2022-10-14T16:11:46.490Z,18.70
2022-10-14T16:14:49.614Z,18.70
2022-10-14T16:17:53.250Z,18.70
2022-10-14T16:20:57.829Z,18.70
2022-10-14T16:24:02.357Z,18.70
2022-10-14T16:27:05.573Z,18.70
2022-10-14T16:30:11.430Z,18.60
2022-10-14T16:33:15.338Z,18.60
2022-10-14T16:36:20.350Z,18.50
2022-10-14T16:39:23.535Z,18.40
2022-10-14T16:42:26.741Z,18.40
2022-10-14T16:45:29.873Z,18.30
2022-10-14T16:48:34.892Z,18.20
2022-10-14T16:51:39.569Z,18.20
2022-10-14T16:54:42.999Z,18.10
2022-10-14T16:57:46.289Z,18.10
2022-10-14T17:00:49.738Z,18.00
2022-10-14T17:03:52.869Z,18.00
2022-10-14T17:06:57.917Z,17.80
2022-10-14T17:10:01.359Z,17.80
2022-10-14T17:13:04.979Z,17.70
2022-10-14T17:16:08.688Z,17.60
2022-10-14T17:19:12.308Z,17.50
2022-10-14T17:22:20.041Z,17.40
2022-10-14T17:25:23.393Z,17.20
2022-10-14T17:28:26.842Z,17.20
2022-10-14T17:31:30.521Z,17.10
2022-10-14T17:34:34.027Z,17.10
2022-10-14T17:37:38.547Z,17.00
2022-10-14T17:40:42.159Z,16.90
2022-10-14T17:43:49.467Z,16.90
2022-10-14T17:46:53.312Z,16.80
2022-10-14T17:49:57.329Z,16.80
2022-10-14T17:53:05.007Z,16.80
2022-10-14T17:56:12.751Z,16.70
2022-10-14T17:59:16.736Z,16.60
2022-10-14T18:02:20.834Z,16.60
2022-10-14T18:05:24.793Z,16.50
2022-10-14T18:08:30.634Z,16.50
2022-10-14T18:12:03.504Z,16.40
2022-10-14T18:15:03.273Z,16.40
2022-10-14T18:18:08.297Z,16.30
2022-10-14T18:21:13.147Z,16.30
2022-10-14T18:24:18.893Z,16.20
2022-10-14T18:27:22.738Z,16.20
2022-10-14T18:30:27.246Z,16.10
2022-10-14T18:33:36.112Z,16.10
2022-10-14T18:36:40.228Z,16.10
2022-10-14T18:39:46.597Z,16.00
2022-10-14T18:42:57.626Z,16.00
2022-10-14T18:46:07.061Z,16.00
2022-10-14T18:49:14.504Z,16.10
2022-10-14T18:52:21.191Z,16.10
2022-10-14T18:55:27.103Z,16.20
2022-10-14T18:58:31.422Z,16.20
2022-10-14T19:01:37.085Z,16.20
2022-10-14T19:04:41.921Z,16.20
2022-10-14T19:07:46.471Z,16.20
2022-10-14T19:10:52.094Z,16.20
2022-10-14T19:13:58.195Z,16.20
2022-10-14T19:17:02.768Z,16.20
2022-10-14T19:20:08.940Z,16.20
2022-10-14T19:23:13.298Z,16.20
2022-10-14T19:26:23.373Z,16.30
2022-10-14T19:29:27.411Z,16.20
2022-10-14T19:32:31.932Z,16.10
2022-10-14T19:35:36.091Z,16.10
2022-10-14T19:38:41.098Z,16.00
2022-10-14T19:41:47.659Z,16.00
2022-10-14T19:44:53.068Z,16.00
2022-10-14T19:47:56.874Z,16.00
2022-10-14T19:51:06.154Z,15.90
2022-10-14T19:54:12.560Z,15.90
2022-10-14T19:57:17.252Z,15.80
2022-10-14T20:00:20.538Z,15.80
2022-10-14T20:03:24.364Z,15.70
2022-10-14T20:06:29.753Z,15.70
2022-10-14T20:09:33.263Z,15.60
2022-10-14T20:12:38.323Z,15.50
2022-10-14T20:15:41.820Z,15.50
2022-10-14T20:18:45.328Z,15.50
2022-10-14T20:21:48.675Z,15.50
2022-10-14T20:24:52.374Z,15.50
2022-10-14T20:27:57.249Z,15.50
2022-10-14T20:31:00.696Z,15.50
2022-10-14T20:34:08.684Z,15.50
2022-10-14T20:37:14.718Z,15.50
2022-10-14T20:40:18.286Z,15.50
2022-10-14T20:43:22.860Z,15.60
2022-10-14T20:46:26.103Z,15.50
2022-10-14T20:49:29.541Z,15.60
2022-10-14T20:52:32.940Z,15.60
2022-10-14T20:55:36.064Z,15.70
2022-10-14T20:58:41.305Z,15.60
2022-10-14T21:01:44.561Z,15.60
2022-10-14T21:04:49.093Z,15.60
2022-10-14T21:07:53.245Z,15.60
2022-10-14T21:10:59.341Z,15.60
2022-10-14T21:14:04.260Z,15.60
2022-10-14T21:17:07.418Z,15.50
2022-10-14T21:20:11.311Z,15.50
2022-10-14T21:23:14.490Z,15.50
2022-10-14T21:26:18.085Z,15.50
2022-10-14T21:29:23.114Z,15.50
2022-10-14T21:32:26.897Z,15.40
2022-10-14T21:35:30.725Z,15.40
2022-10-14T21:38:34.076Z,15.30
2022-10-14T21:41:37.362Z,15.20
2022-10-14T21:44:41.993Z,15.10
2022-10-14T21:47:45.180Z,15.10
2022-10-14T21:50:48.424Z,15.10
2022-10-14T21:53:51.631Z,15.00
2022-10-14T21:56:57.682Z,15.00
2022-10-14T22:00:02.287Z,15.00
2022-10-14T22:03:05.696Z,15.00
2022-10-14T22:06:10.682Z,14.90
2022-10-14T22:09:13.947Z,14.80
2022-10-14T22:12:17.102Z,14.80
2022-10-14T22:15:21.615Z,14.80
2022-10-14T22:18:25.082Z,14.70
2022-10-14T22:21:30.270Z,14.70
2022-10-14T22:24:33.390Z,14.70
2022-10-14T22:27:36.848Z,14.70
2022-10-14T22:30:41.353Z,14.60
2022-10-14T22:33:45.002Z,14.60
2022-10-14T22:36:48.239Z,14.60
2022-10-14T22:39:51.343Z,14.60
2022-10-14T22:42:55.223Z,14.50
2022-10-14T22:46:04.142Z,14.50
2022-10-14T22:49:07.941Z,14.50
2022-10-14T22:52:11.049Z,14.50
2022-10-14T22:55:14.334Z,14.50
2022-10-14T22:58:17.669Z,14.40
2022-10-14T23:01:23.029Z,14.40
2022-10-14T23:04:26.182Z,14.40
2022-10-14T23:07:30.013Z,14.40
2022-10-14T23:10:33.438Z,14.30
2022-10-14T23:13:36.724Z,14.30
2022-10-14T23:16:41.389Z,14.20
2022-10-14T23:19:44.648Z,14.20
2022-10-14T23:22:47.954Z,14.10
2022-10-14T23:25:51.206Z,14.10
2022-10-14T23:28:57.582Z,14.10
2022-10-14T23:32:03.037Z,14.10
2022-10-14T23:35:07.132Z,14.10
2022-10-14T23:38:12.709Z,14.10
2022-10-14T23:41:16.459Z,14.10
2022-10-14T23:44:19.639Z,14.10
2022-10-14T23:47:24.656Z,14.00
2022-10-14T23:50:28.313Z,14.00
2022-10-14T23:53:31.439Z,14.10
2022-10-14T23:56:34.658Z,14.10
2022-10-14T23:59:37.894Z,14.00
